Nearby METAR Reports

 

KCMA - Camarillo, California, USA
Distance from station: WSW 4mi, 7km
Updated: Sun, 26-Jan-2020 1:29am PST
Mist, Overcast
Mist, Overcast
 Wind from ENE
Wind: ENE 3 mph , 6 km/h
Temperature: 50°F , 10°C
Dew Point: 46°F , 8°C
Humidity: 88%
Barometer: 30.12 inHg , 1020 hPa
Summary: Mist
Clouds: Overcast
Visibility: 1 mile , 2 km
Cloud details: Overcast 300 ft
2020/01/26 09:29 KCMA 260929Z AUTO 06003KT 1SM BR VV003 10/08 A3012 RMK AO2 T01000083
KNTD - Point Mugu Nas, California, USA
Distance from station: SSW 9mi, 15km
Updated: Sat, 25-Jan-2020 10:52pm PST
NOT Current
Mist, Few clouds
Mist, Few clouds
 Wind from calm
Wind: Calm
Temperature: 57°F , 14°C
Dew Point: 50°F , 10°C
Humidity: 77%
Barometer: 30.09 inHg , 1019 hPa
Summary: Mist
Clouds: Few Clouds
Visibility: 4 miles , 6 km
Cloud details: Few Clouds 700 ft
2020/01/26 06:52 KNTD 260652Z 00000KT 4SM BR FEW007 14/10 A3009 RMK SLP188 LAST T01420104
 
KOXR - Oxnard, California, USA
Distance from station: WSW 10mi, 16km
Updated: Sun, 26-Jan-2020 12:51am PST
Mist, Overcast
Mist, Overcast
 Wind from calm
Wind: Calm
Temperature: 54°F , 12°C
Dew Point: 52°F , 11°C
Humidity: 94%
Barometer: 30.12 inHg , 1020 hPa
Summary: Mist
Clouds: Overcast
Visibility: 5 miles , 8 km
Cloud details: Overcast 1100 ft
2020/01/26 08:51 KOXR 260851Z AUTO 00000KT 5SM BR OVC011 12/11 A3012 RMK AO2 SLP198 T01220111 50006 $
KVNY - Van Nuys, California, USA
Distance from station: E 31mi, 50km
Updated: Sun, 26-Jan-2020 12:51am PST
Mist, Overcast
Mist, Overcast
 Wind from ESE
Wind: ESE 3 mph , 6 km/h
Temperature: 54°F , 12°C
Dew Point: 52°F , 11°C
Humidity: 94%
Barometer: 30.12 inHg , 1020 hPa
Summary: Mist
Clouds: Overcast
Visibility: 2 miles , 3 km
Cloud details: Overcast 400 ft
2020/01/26 08:51 KVNY 260851Z AUTO 12003KT 2SM BR OVC004 12/11 A3012 RMK AO2 SLP192 T01170106 50005
 
KWHP - La / Whiteman, California, USA
Distance from station: E 35mi, 56km
Updated: Sat, 25-Jan-2020 7:50pm PST
NOT Current
Clear
Clear
 Wind from NE
Wind: NE 3 mph , 6 km/h
Temperature: 59°F , 15°C
Dew Point: 50°F , 10°C
Humidity: 72%
Barometer: 30.10 inHg , 1019.3 hPa
Clouds: Clear
Visibility: 10 miles , 16 km
2020/01/26 03:50 KWHP 260350Z 04003KT 10SM SKC 15/10 A3010
KSMO - Santa Monica, California, USA
Distance from station: ESE 36mi, 58km
Updated: Sun, 26-Jan-2020 12:51am PST
Haze, Overcast
Haze, Overcast
 Wind from SW
Wind: SW 3 mph , 6 km/h
Temperature: 55°F , 13°C
Dew Point: 52°F , 11°C
Humidity: 88%
Barometer: 30.13 inHg , 1020.3 hPa
Summary: Haze
Clouds: Overcast
Visibility: 5 miles , 8 km
Cloud details: Overcast 1000 ft
2020/01/26 08:51 KSMO 260851Z AUTO 22003KT 5SM HZ OVC010 13/11 A3013 RMK AO2 SLP201 T01330106 50001
 
KBUR - Burbank, California, USA
Distance from station: E 38mi, 61km
Updated: Sun, 26-Jan-2020 12:53am PST
Mist, Overcast
Mist, Overcast
 Wind from SSE
Wind: SSE 5 mph , 7 km/h
Temperature: 54°F , 12°C
Dew Point: 52°F , 11°C
Humidity: 94%
Barometer: 30.11 inHg , 1019.6 hPa
Summary: Mist
Clouds: Overcast
Visibility: 2 miles , 3 km
Cloud details: Overcast 300 ft
2020/01/26 08:53 KBUR 260853Z 16004KT 2SM BR OVC003 12/11 A3011 RMK AO2 SLP188 T01170106 55002
KSDB - Sandberg, California, USA
Distance from station: NNE 40mi, 64km
Updated: Sun, 26-Jan-2020 12:53am PST
Few Clouds
Few Clouds
 Wind from S
Wind: S 6 mph , 9 km/h
Temperature: 54°F , 12°C
Dew Point: 28°F , -2°C
Humidity: 38%
Barometer: 30.17 inHg , 1021.7 hPa
Clouds: Few Clouds
Visibility: 10 miles , 16 km
Cloud details: Few Clouds 11000 ft
2020/01/26 08:53 KSDB 260853Z AUTO 18005KT 10SM FEW110 12/M02 A3017 RMK AO2 SLP182 T01221017 58005
 
KLAX - Los Angeles, California, USA
Distance from station: ESE 42mi, 68km
Updated: Sun, 26-Jan-2020 12:53am PST
Mist, Overcast
Mist, Overcast
 Wind from SSE
Wind: SSE 3 mph , 6 km/h
Temperature: 57°F , 14°C
Dew Point: 54°F , 12°C
Humidity: 88%
Barometer: 30.13 inHg , 1020.3 hPa
Summary: Mist
Clouds: Overcast
Visibility: 2 1/2 miles , 4 km
Cloud details: Mostly cloudy 400 ft
Overcast 900 ft
2020/01/26 08:53 KLAX 260853Z 15003KT 2 1/2SM BR BKN004 OVC009 14/12 A3013 RMK AO2 SLP200 VIS SW-W 1 3/4 T01440122 50001
KCQT - Los Angeles, California, USA
Distance from station: ESE 45mi, 73km
Updated: Sun, 26-Jan-2020 1:18am PST
Haze, Overcast
Haze, Overcast
 Wind from calm
Wind: Calm
Temperature: 57°F , 14°C
Dew Point: 52°F , 11°C
Humidity: 82%
Barometer: 30.12 inHg , 1020 hPa
Summary: Haze
Clouds: Overcast
Visibility: 3 miles , 5 km
Cloud details: Overcast 800 ft
2020/01/26 09:18 KCQT 260918Z AUTO 00000KT 3SM HZ OVC008 14/11 A3012 RMK AO2 T01440111
 
KHHR - Hawthorne, California, USA
Distance from station: ESE 45mi, 73km
Updated: Sun, 26-Jan-2020 1:35am PST
Haze, Overcast
Haze, Overcast
 Wind from calm
Wind: Calm
Temperature: 57°F , 14°C
Dew Point: 52°F , 11°C
Humidity: 82%
Barometer: 30.13 inHg , 1020.3 hPa
Summary: Haze
Clouds: Overcast
Visibility: 3 miles , 5 km
Cloud details: Overcast 1000 ft
2020/01/26 09:35 KHHR 260935Z AUTO 00000KT 3SM HZ OVC010 14/11 A3013 RMK AO2 T01390106 $
KSBA - Santa Barbara, California, USA
Distance from station: WNW 49mi, 79km
Updated: Sun, 26-Jan-2020 1:19am PST
Mostly cloudy
Mostly cloudy
 Wind from ENE
Wind: ENE 5 mph , 7 km/h
Temperature: 55°F , 13°C
Dew Point: 54°F , 12°C
Humidity: 94%
Barometer: 30.11 inHg , 1019.6 hPa
Clouds: Mostly cloudy
Visibility: 7 miles , 11 km
Cloud details: Mostly cloudy 800 ft
2020/01/26 09:19 KSBA 260919Z AUTO 06004KT 7SM BKN008 13/12 A3011 RMK AO2 T01280117